createdAt,value
2017-09-24T00:00:25.022Z,102486.64
2017-09-24T00:02:54.114Z,102480.32
2017-09-24T00:05:23.190Z,102490.36
2017-09-24T00:07:51.525Z,102490.61
2017-09-24T00:10:19.842Z,102487.43
2017-09-24T00:12:48.175Z,102490.36
2017-09-24T00:15:17.254Z,102492.90
2017-09-24T00:17:45.563Z,102487.80
2017-09-24T00:20:13.864Z,102485.45
2017-09-24T00:22:42.166Z,102484.78
2017-09-24T00:25:10.492Z,102481.09
2017-09-24T00:27:39.558Z,102479.92
2017-09-24T00:30:07.864Z,102483.13
2017-09-24T00:32:36.943Z,102482.38
2017-09-24T00:35:05.274Z,102493.67
2017-09-24T00:37:33.572Z,102483.94
2017-09-24T00:40:01.887Z,102493.50
2017-09-24T00:42:30.248Z,102495.09
2017-09-24T00:44:58.584Z,102486.47
2017-09-24T00:47:27.677Z,102491.16
2017-09-24T00:49:56.766Z,102491.68
2017-09-24T00:52:25.066Z,102487.50
2017-09-24T00:54:54.190Z,102488.66
2017-09-24T00:57:22.510Z,102483.55
2017-09-24T00:59:50.826Z,102480.55
2017-09-24T01:02:19.895Z,102479.12
2017-09-24T01:04:48.215Z,102479.81
2017-09-24T01:07:16.536Z,102476.05
2017-09-24T01:09:44.856Z,102476.80
2017-09-24T01:12:13.184Z,102474.37
2017-09-24T01:14:41.507Z,102476.95
2017-09-24T01:17:09.840Z,102473.94
2017-09-24T01:19:38.193Z,102475.28
2017-09-24T01:22:07.278Z,102471.13
2017-09-24T01:24:35.607Z,102474.80
2017-09-24T01:27:03.913Z,102472.87
2017-09-24T01:29:32.241Z,102463.58
2017-09-24T01:32:01.326Z,102468.67
2017-09-24T01:34:29.628Z,102465.94
2017-09-24T01:36:57.982Z,102476.38
2017-09-24T01:39:26.306Z,102475.20
2017-09-24T01:41:54.613Z,102478.88
2017-09-24T01:44:22.936Z,102483.55
2017-09-24T01:46:52.016Z,102485.20
2017-09-24T01:49:20.348Z,102486.31
2017-09-24T01:51:48.684Z,102483.39
2017-09-24T01:54:17.001Z,102480.72
2017-09-24T01:56:46.089Z,102481.80
2017-09-24T01:59:15.176Z,102480.45
2017-09-24T02:01:43.506Z,102481.59
2017-09-24T02:04:11.822Z,102483.34
2017-09-24T02:06:40.147Z,102486.93
2017-09-24T02:09:08.483Z,102484.42
2017-09-24T02:11:36.778Z,102484.00
2017-09-24T02:14:05.094Z,102480.07
2017-09-24T02:16:33.407Z,102479.81
2017-09-24T02:19:01.727Z,102472.80
2017-09-24T02:21:30.058Z,102478.41
2017-09-24T02:23:58.389Z,102475.14
2017-09-24T02:26:26.699Z,102475.72
2017-09-24T02:28:55.766Z,102476.30
2017-09-24T02:31:25.593Z,102474.55
2017-09-24T02:33:53.903Z,102475.55
2017-09-24T02:36:22.204Z,102479.97
2017-09-24T02:38:50.533Z,102474.05
2017-09-24T02:41:19.630Z,102472.30
2017-09-24T02:43:47.936Z,102472.28
2017-09-24T02:46:17.024Z,102471.36
2017-09-24T02:48:46.101Z,102471.44
2017-09-24T02:51:15.275Z,102458.42
2017-09-24T02:53:43.591Z,102464.77
2017-09-24T02:56:11.942Z,102468.20
2017-09-24T02:58:40.262Z,102472.97
2017-09-24T03:01:08.571Z,102462.52
2017-09-24T03:03:36.884Z,102461.11
2017-09-24T03:06:05.188Z,102457.59
2017-09-24T03:08:33.559Z,102453.52
2017-09-24T03:11:01.878Z,102447.16
2017-09-24T03:13:30.978Z,102441.95
2017-09-24T03:16:00.056Z,102442.44
2017-09-24T03:18:28.364Z,102443.95
2017-09-24T03:20:57.455Z,102452.56
2017-09-24T03:23:26.530Z,102445.36
2017-09-24T03:25:54.838Z,102443.69
2017-09-24T03:28:23.940Z,102436.03
2017-09-24T03:30:52.285Z,102434.27
2017-09-24T03:33:20.593Z,102439.28
2017-09-24T03:35:48.946Z,102437.03
2017-09-24T03:38:17.248Z,102443.47
2017-09-24T03:40:45.583Z,102435.92
2017-09-24T03:43:13.933Z,102442.03
2017-09-24T03:45:43.088Z,102439.36
2017-09-24T03:48:11.403Z,102438.09
2017-09-24T03:50:39.735Z,102437.69
2017-09-24T03:53:08.058Z,102440.68
2017-09-24T03:55:36.374Z,102438.61
2017-09-24T03:58:04.667Z,102438.90
2017-09-24T04:00:32.999Z,102443.25
2017-09-24T04:03:01.322Z,102443.75
2017-09-24T04:05:29.632Z,102433.89
2017-09-24T04:07:58.003Z,102434.73
2017-09-24T04:10:26.322Z,102433.72
2017-09-24T04:12:54.634Z,102442.25
2017-09-24T04:15:23.731Z,102439.83
2017-09-24T04:17:53.562Z,102446.77
2017-09-24T04:20:21.889Z,102446.84
2017-09-24T04:22:50.210Z,102445.09
2017-09-24T04:25:19.312Z,102444.25
2017-09-24T04:27:48.431Z,102447.26
2017-09-24T04:30:16.751Z,102447.84
2017-09-24T04:32:45.056Z,102453.92
2017-09-24T04:35:13.369Z,102452.73
2017-09-24T04:37:42.458Z,102447.55
2017-09-24T04:40:11.574Z,102455.56
2017-09-24T04:42:39.886Z,102452.33
2017-09-24T04:45:08.218Z,102455.66
2017-09-24T04:47:37.332Z,102451.05
2017-09-24T04:50:05.633Z,102453.21
2017-09-24T04:52:33.952Z,102458.06
2017-09-24T04:55:02.286Z,102456.16
2017-09-24T04:57:30.605Z,102457.37
2017-09-24T04:59:58.950Z,102451.39
2017-09-24T05:02:27.270Z,102455.55
2017-09-24T05:04:55.605Z,102452.55
2017-09-24T05:07:23.920Z,102460.56
2017-09-24T05:09:52.287Z,102456.87
2017-09-24T05:12:20.645Z,102455.28
2017-09-24T05:14:48.965Z,102451.95
2017-09-24T05:17:17.289Z,102451.79
2017-09-24T05:19:45.605Z,102456.30
2017-09-24T05:22:13.930Z,102461.38
2017-09-24T05:24:42.279Z,102461.31
2017-09-24T05:27:10.595Z,102467.41
2017-09-24T05:29:38.935Z,102467.86
2017-09-24T05:32:07.258Z,102467.78
2017-09-24T05:34:35.577Z,102469.46
2017-09-24T05:37:04.662Z,102466.35
2017-09-24T05:39:33.737Z,102472.95
2017-09-24T05:42:02.092Z,102475.20
2017-09-24T05:44:30.411Z,102477.81
2017-09-24T05:46:58.741Z,102479.72
2017-09-24T05:49:27.093Z,102481.16
2017-09-24T05:51:56.189Z,102482.89
2017-09-24T05:54:25.277Z,102468.82
2017-09-24T05:56:53.609Z,102473.43
2017-09-24T05:59:21.935Z,102473.91
2017-09-24T06:01:50.329Z,102480.19
2017-09-24T06:04:18.675Z,102481.58
2017-09-24T06:06:46.992Z,102485.59
2017-09-24T06:09:15.335Z,102482.97
2017-09-24T06:11:43.648Z,102476.09
2017-09-24T06:14:11.979Z,102474.80
2017-09-24T06:16:40.300Z,102474.43
2017-09-24T06:19:08.617Z,102477.52
2017-09-24T06:21:37.720Z,102474.95
2017-09-24T06:24:06.815Z,102476.15
2017-09-24T06:26:35.937Z,102481.16
2017-09-24T06:29:04.249Z,102481.21
2017-09-24T06:31:32.581Z,102485.72
2017-09-24T06:34:01.689Z,102483.53
2017-09-24T06:36:30.763Z,102478.42
2017-09-24T06:38:59.100Z,102483.98
2017-09-24T06:41:27.456Z,102480.61
2017-09-24T06:43:55.776Z,102487.09
2017-09-24T06:46:24.102Z,102488.86
2017-09-24T06:48:52.435Z,102484.80
2017-09-24T06:51:20.769Z,102487.52
2017-09-24T06:53:49.853Z,102491.28
2017-09-24T06:56:18.208Z,102494.20
2017-09-24T06:58:46.543Z,102495.11
2017-09-24T07:01:15.646Z,102495.16
2017-09-24T07:03:44.011Z,102497.91
2017-09-24T07:06:13.112Z,102499.82
2017-09-24T07:08:42.180Z,102502.61
2017-09-24T07:11:10.501Z,102502.50
2017-09-24T07:13:39.595Z,102500.80
2017-09-24T07:16:08.669Z,102505.27
2017-09-24T07:18:36.990Z,102499.78
2017-09-24T07:21:05.320Z,102496.52
2017-09-24T07:23:33.649Z,102500.95
2017-09-24T07:26:01.982Z,102509.48
2017-09-24T07:28:30.320Z,102508.44
2017-09-24T07:30:58.661Z,102503.44
2017-09-24T07:33:26.980Z,102502.33
2017-09-24T07:35:56.092Z,102496.33
2017-09-24T07:38:24.428Z,102503.39
2017-09-24T07:40:52.806Z,102510.53
2017-09-24T07:43:21.143Z,102513.86
2017-09-24T07:45:49.493Z,102510.34
2017-09-24T07:48:18.609Z,102514.64
2017-09-24T07:50:46.944Z,102518.03
2017-09-24T07:53:15.262Z,102519.55
2017-09-24T07:55:44.376Z,102521.05
2017-09-24T07:58:12.702Z,102514.91
2017-09-24T08:00:41.040Z,102523.92
2017-09-24T08:03:09.394Z,102522.00
2017-09-24T08:05:37.728Z,102526.45
2017-09-24T08:08:06.068Z,102524.55
2017-09-24T08:10:35.171Z,102522.00
2017-09-24T08:13:04.246Z,102526.23
2017-09-24T08:15:32.564Z,102527.10
2017-09-24T08:18:01.658Z,102523.49
2017-09-24T08:20:30.762Z,102525.89
2017-09-24T08:22:59.086Z,102524.72
2017-09-24T08:25:27.407Z,102525.45
2017-09-24T08:27:55.744Z,102525.84
2017-09-24T08:30:24.106Z,102524.66
2017-09-24T08:32:52.447Z,102528.13
2017-09-24T08:35:20.779Z,102530.41
2017-09-24T08:37:49.120Z,102532.98
2017-09-24T08:40:17.441Z,102529.31
2017-09-24T08:42:45.753Z,102533.77
2017-09-24T08:45:14.168Z,102534.65
2017-09-24T08:47:43.250Z,102522.56
2017-09-24T08:50:11.580Z,102524.16
2017-09-24T08:52:39.892Z,102520.41
2017-09-24T08:55:08.226Z,102529.29
2017-09-24T08:57:36.617Z,102517.93
2017-09-24T09:00:04.944Z,102523.75
2017-09-24T09:02:33.259Z,102520.65
2017-09-24T09:05:02.349Z,102524.63
2017-09-24T09:07:30.673Z,102525.16
2017-09-24T09:09:59.014Z,102519.03
2017-09-24T09:12:27.337Z,102520.59
2017-09-24T09:14:55.680Z,102517.45
2017-09-24T09:17:23.995Z,102520.28
2017-09-24T09:19:52.329Z,102516.23
2017-09-24T09:22:20.665Z,102519.56
2017-09-24T09:24:49.051Z,102516.03
2017-09-24T09:27:17.381Z,102519.89
2017-09-24T09:29:45.726Z,102522.70
2017-09-24T09:32:14.151Z,102522.47
2017-09-24T09:35:00.347Z,102522.05
2017-09-24T09:37:28.667Z,102522.05
2017-09-24T09:39:56.977Z,102513.22
2017-09-24T09:42:25.334Z,102516.23
2017-09-24T09:44:53.665Z,102515.52
2017-09-24T09:47:27.742Z,102512.08
2017-09-24T09:49:56.093Z,102512.52
2017-09-24T09:52:25.165Z,102505.64
2017-09-24T09:54:53.518Z,102507.00
2017-09-24T09:57:21.863Z,102502.53
2017-09-24T09:59:50.216Z,102504.91
2017-09-24T10:02:18.535Z,102505.42
2017-09-24T10:04:46.855Z,102506.70
2017-09-24T10:07:32.856Z,102504.18
2017-09-24T10:10:16.733Z,102507.58
2017-09-24T10:12:45.050Z,102503.63
2017-09-24T10:15:13.372Z,102501.88
2017-09-24T10:17:42.444Z,102505.79
2017-09-24T10:20:10.771Z,102505.31
2017-09-24T10:22:39.119Z,102500.99
2017-09-24T10:25:07.449Z,102501.87
2017-09-24T10:27:35.759Z,102501.33
2017-09-24T10:30:21.917Z,102502.33
2017-09-24T10:32:50.247Z,102504.09
2017-09-24T10:35:18.567Z,102496.40
2017-09-24T10:37:47.652Z,102502.01
2017-09-24T10:40:16.742Z,102502.83
2017-09-24T10:42:45.071Z,102505.75
2017-09-24T10:45:13.384Z,102503.84
2017-09-24T10:47:41.709Z,102504.05
2017-09-24T10:50:10.821Z,102506.78
2017-09-24T10:52:39.141Z,102499.75
2017-09-24T10:55:07.453Z,102506.67
2017-09-24T10:57:36.561Z,102505.27
2017-09-24T11:00:05.643Z,102510.73
2017-09-24T11:02:33.967Z,102510.98
2017-09-24T11:05:02.300Z,102499.98
2017-09-24T11:07:30.628Z,102507.82
2017-09-24T11:09:58.952Z,102510.52
2017-09-24T11:12:27.282Z,102506.98
2017-09-24T11:14:56.363Z,102511.87
2017-09-24T11:17:25.457Z,102507.95
2017-09-24T11:19:53.769Z,102508.26
2017-09-24T11:22:22.094Z,102513.73
2017-09-24T11:24:50.429Z,102513.12
2017-09-24T11:27:18.736Z,102512.36
2017-09-24T11:29:47.048Z,102512.53
2017-09-24T11:32:15.379Z,102515.92
2017-09-24T11:34:43.693Z,102516.59
2017-09-24T11:37:12.008Z,102521.73
2017-09-24T11:39:40.316Z,102521.34
2017-09-24T11:42:08.638Z,102515.12
2017-09-24T11:44:36.968Z,102515.48
2017-09-24T11:47:06.024Z,102518.16
2017-09-24T11:49:34.350Z,102505.08
2017-09-24T11:52:03.443Z,102512.11
2017-09-24T11:54:32.546Z,102504.52
2017-09-24T11:57:01.666Z,102504.33
2017-09-24T11:59:29.977Z,102501.95
2017-09-24T12:01:58.294Z,102503.51
2017-09-24T12:04:26.615Z,102509.38
2017-09-24T12:06:54.927Z,102512.43
2017-09-24T12:09:23.254Z,102507.48
2017-09-24T12:11:52.337Z,102509.05
2017-09-24T12:14:20.666Z,102500.47
2017-09-24T12:16:49.001Z,102502.86
2017-09-24T12:19:17.318Z,102503.63
2017-09-24T12:21:45.631Z,102488.70
2017-09-24T12:24:13.950Z,102500.61
2017-09-24T12:26:42.298Z,102492.25
2017-09-24T12:29:10.602Z,102488.67
2017-09-24T12:31:38.941Z,102493.88
2017-09-24T12:34:07.287Z,102490.11
2017-09-24T12:36:36.370Z,102487.25
2017-09-24T12:39:04.692Z,102490.81
2017-09-24T12:41:33.011Z,102486.03
2017-09-24T12:44:01.337Z,102489.41
2017-09-24T12:46:29.692Z,102482.93
2017-09-24T12:48:58.003Z,102478.13
2017-09-24T12:51:27.130Z,102469.83
2017-09-24T12:53:55.465Z,102472.23
2017-09-24T12:56:24.542Z,102472.92
2017-09-24T12:58:52.875Z,102467.11
2017-09-24T13:01:21.194Z,102470.90
2017-09-24T13:03:50.291Z,102464.75
2017-09-24T13:06:18.637Z,102469.43
2017-09-24T13:08:46.936Z,102469.78
2017-09-24T13:11:15.255Z,102462.36
2017-09-24T13:13:43.580Z,102460.06
2017-09-24T13:16:11.903Z,102459.56
2017-09-24T13:18:40.228Z,102458.40
2017-09-24T13:21:09.294Z,102460.66
2017-09-24T13:23:37.612Z,102461.27
2017-09-24T13:26:06.711Z,102463.27
2017-09-24T13:28:35.801Z,102456.85
2017-09-24T13:31:04.880Z,102464.13
2017-09-24T13:33:33.248Z,102462.59
2017-09-24T13:36:01.561Z,102460.64
2017-09-24T13:38:29.884Z,102456.12
2017-09-24T13:40:58.209Z,102460.98
2017-09-24T13:43:28.125Z,102465.37
2017-09-24T13:45:56.447Z,102467.00
2017-09-24T13:48:24.770Z,102466.99
2017-09-24T13:50:53.097Z,102462.62
2017-09-24T13:53:22.184Z,102462.28
2017-09-24T13:55:50.497Z,102461.06
2017-09-24T13:58:18.825Z,102455.75
2017-09-24T14:00:47.139Z,102458.16
2017-09-24T14:03:16.203Z,102456.16
2017-09-24T14:05:44.522Z,102451.03
2017-09-24T14:08:14.763Z,102453.70
2017-09-24T14:10:43.062Z,102450.57
2017-09-24T14:13:11.351Z,102450.39
2017-09-24T14:15:39.732Z,102451.41
2017-09-24T14:18:08.038Z,102454.38
2017-09-24T14:20:36.327Z,102447.09
2017-09-24T14:23:04.667Z,102443.57
2017-09-24T14:25:32.967Z,102442.63
2017-09-24T14:28:01.282Z,102444.63
2017-09-24T14:30:30.364Z,102432.75
2017-09-24T14:32:58.727Z,102435.42
2017-09-24T14:35:27.038Z,102436.32
2017-09-24T14:37:55.361Z,102433.60
2017-09-24T14:40:23.663Z,102434.96
2017-09-24T14:42:51.982Z,102433.83
2017-09-24T14:45:20.309Z,102427.20
2017-09-24T14:47:48.615Z,102429.55
2017-09-24T14:50:16.914Z,102431.44
2017-09-24T14:52:45.240Z,102425.97
2017-09-24T14:55:14.324Z,102425.55
2017-09-24T14:57:42.634Z,102421.48
2017-09-24T15:00:10.936Z,102418.27
2017-09-24T15:02:39.258Z,102417.80
2017-09-24T15:05:07.575Z,102419.56
2017-09-24T15:07:35.898Z,102416.48
2017-09-24T15:10:04.219Z,102410.22
2017-09-24T15:12:33.298Z,102406.08
2017-09-24T15:15:01.632Z,102407.48
2017-09-24T15:17:29.952Z,102409.33
2017-09-24T15:19:58.300Z,102408.42
2017-09-24T15:22:26.619Z,102406.88
2017-09-24T15:24:54.958Z,102403.87
2017-09-24T15:27:23.299Z,102406.20
2017-09-24T15:29:51.653Z,102409.11
2017-09-24T15:32:19.992Z,102402.48
2017-09-24T15:34:49.093Z,102399.80
2017-09-24T15:37:18.178Z,102396.95
2017-09-24T15:39:47.288Z,102401.16
2017-09-24T15:42:16.450Z,102400.75
2017-09-24T15:44:44.762Z,102404.29
2017-09-24T15:47:13.870Z,102404.74
2017-09-24T15:49:42.969Z,102400.30
2017-09-24T15:52:12.069Z,102398.75
2017-09-24T15:54:41.190Z,102403.77
2017-09-24T15:57:09.496Z,102401.47
2017-09-24T15:59:37.807Z,102396.91
2017-09-24T16:02:06.134Z,102398.71
2017-09-24T16:04:34.466Z,102400.44
2017-09-24T16:07:02.792Z,102394.52
2017-09-24T16:09:31.307Z,102397.98
2017-09-24T16:11:59.627Z,102404.05
2017-09-24T16:14:27.953Z,102396.77
2017-09-24T16:16:56.268Z,102408.75
2017-09-24T16:19:24.588Z,102408.25
2017-09-24T16:21:53.668Z,102412.69
2017-09-24T16:24:21.991Z,102414.60
2017-09-24T16:26:50.304Z,102413.84
2017-09-24T16:29:19.204Z,102416.27
2017-09-24T16:31:47.501Z,102409.75
2017-09-24T16:34:15.825Z,102412.41
2017-09-24T16:36:44.148Z,102407.13
2017-09-24T16:39:12.461Z,102409.90
2017-09-24T16:41:41.547Z,102410.41
2017-09-24T16:44:09.925Z,102415.59
2017-09-24T16:46:38.269Z,102418.94
2017-09-24T16:49:06.600Z,102421.41
2017-09-24T16:51:35.699Z,102421.28
2017-09-24T16:54:04.013Z,102419.39
2017-09-24T16:56:32.328Z,102418.91
2017-09-24T16:59:00.647Z,102417.63
2017-09-24T17:01:28.963Z,102420.27
2017-09-24T17:03:57.298Z,102418.89
2017-09-24T17:06:25.602Z,102415.53
2017-09-24T17:08:54.679Z,102411.89
2017-09-24T17:11:22.997Z,102417.89
2017-09-24T17:13:52.075Z,102423.59
2017-09-24T17:16:20.397Z,102421.57
2017-09-24T17:18:48.729Z,102421.83
2017-09-24T17:21:17.825Z,102424.45
2017-09-24T17:23:46.153Z,102423.97
2017-09-24T17:26:14.479Z,102428.69
2017-09-24T17:28:42.807Z,102432.13
2017-09-24T17:31:11.139Z,102430.09
2017-09-24T17:33:39.450Z,102428.84
2017-09-24T17:36:07.763Z,102434.34
2017-09-24T17:38:36.137Z,102431.26
2017-09-24T17:41:04.458Z,102430.45
2017-09-24T17:43:32.781Z,102427.22
2017-09-24T17:46:01.115Z,102430.25
2017-09-24T17:48:29.428Z,102427.64
2017-09-24T17:50:57.753Z,102429.20
2017-09-24T17:53:26.067Z,102432.72
2017-09-24T17:55:54.396Z,102438.55
2017-09-24T17:58:23.553Z,102448.70
2017-09-24T18:00:51.863Z,102445.50
2017-09-24T18:03:20.952Z,102449.94
2017-09-24T18:05:49.287Z,102447.42
2017-09-24T18:08:17.595Z,102450.61
2017-09-24T18:10:45.915Z,102450.21
2017-09-24T18:13:15.034Z,102448.63
2017-09-24T18:15:44.097Z,102447.37
2017-09-24T18:18:12.397Z,102449.77
2017-09-24T18:20:41.479Z,102452.02
2017-09-24T18:23:09.795Z,102452.63
2017-09-24T18:25:38.881Z,102453.67
2017-09-24T18:28:07.967Z,102447.63
2017-09-24T18:30:36.284Z,102451.13
2017-09-24T18:33:04.584Z,102451.02
2017-09-24T18:35:32.886Z,102447.56
2017-09-24T18:38:01.195Z,102446.62
2017-09-24T18:40:29.531Z,102442.97
2017-09-24T18:42:57.852Z,102444.42
2017-09-24T18:45:26.296Z,102455.80
2017-09-24T18:47:54.607Z,102447.78
2017-09-24T18:50:23.119Z,102455.04
2017-09-24T18:52:51.437Z,102458.73
2017-09-24T18:55:19.878Z,102456.85
2017-09-24T18:57:48.986Z,102462.95
2017-09-24T19:00:18.071Z,102456.13
2017-09-24T19:02:46.415Z,102464.50
2017-09-24T19:05:15.089Z,102467.67
2017-09-24T19:07:43.683Z,102471.50
2017-09-24T19:10:12.030Z,102464.92
2017-09-24T19:12:41.099Z,102471.12
2017-09-24T19:15:09.465Z,102474.20
2017-09-24T19:17:37.823Z,102475.70
2017-09-24T19:20:06.428Z,102471.67
2017-09-24T19:22:36.547Z,102472.47
2017-09-24T19:25:05.223Z,102470.35
2017-09-24T19:27:33.915Z,102471.98
2017-09-24T19:30:02.499Z,102471.16
2017-09-24T19:32:30.911Z,102468.98
2017-09-24T19:34:59.286Z,102474.23
2017-09-24T19:37:27.707Z,102474.09
2017-09-24T19:39:57.111Z,102479.64
2017-09-24T19:42:25.802Z,102476.02
2017-09-24T19:44:54.885Z,102472.27
2017-09-24T19:47:23.537Z,102471.20
2017-09-24T19:49:52.152Z,102469.92
2017-09-24T19:52:20.557Z,102474.05
2017-09-24T19:54:48.930Z,102470.81
2017-09-24T19:57:17.238Z,102468.91
2017-09-24T19:59:46.320Z,102473.52
2017-09-24T20:02:14.635Z,102474.77
2017-09-24T20:04:43.801Z,102477.83
2017-09-24T20:07:12.220Z,102476.77
2017-09-24T20:09:41.339Z,102473.34
2017-09-24T20:12:09.666Z,102479.00
2017-09-24T20:14:37.973Z,102483.87
2017-09-24T20:17:07.073Z,102483.09
2017-09-24T20:19:36.158Z,102484.30
2017-09-24T20:22:04.488Z,102479.52
2017-09-24T20:24:32.814Z,102476.37
2017-09-24T20:27:01.118Z,102480.81
2017-09-24T20:29:30.254Z,102475.81
2017-09-24T20:31:58.555Z,102481.88
2017-09-24T20:34:26.881Z,102474.52
2017-09-24T20:36:55.961Z,102479.88
2017-09-24T20:39:24.261Z,102480.16
2017-09-24T20:41:53.356Z,102479.33
2017-09-24T20:44:23.271Z,102478.55
2017-09-24T20:46:51.597Z,102467.75
2017-09-24T20:49:19.914Z,102465.94
2017-09-24T20:51:48.218Z,102467.28
2017-09-24T20:54:17.320Z,102464.87
2017-09-24T20:56:46.410Z,102466.07
2017-09-24T20:59:14.736Z,102472.28
2017-09-24T21:01:43.058Z,102468.11
2017-09-24T21:04:11.365Z,102472.61
2017-09-24T21:06:40.448Z,102477.83
2017-09-24T21:09:08.752Z,102478.06
2017-09-24T21:11:37.834Z,102474.94
2017-09-24T21:14:06.151Z,102479.34
2017-09-24T21:16:34.459Z,102483.64
2017-09-24T21:19:02.766Z,102488.37
2017-09-24T21:21:31.784Z,102488.73
2017-09-24T21:24:00.855Z,102493.16
2017-09-24T21:26:29.201Z,102493.20
2017-09-24T21:28:57.497Z,102489.62
2017-09-24T21:31:25.811Z,102491.98
2017-09-24T21:33:55.638Z,102487.63
2017-09-24T21:36:23.945Z,102490.20
2017-09-24T21:38:53.024Z,102494.69
2017-09-24T21:41:21.361Z,102491.02
2017-09-24T21:43:49.669Z,102490.52
2017-09-24T21:46:18.032Z,102488.33
2017-09-24T21:48:46.336Z,102492.36
2017-09-24T21:51:14.629Z,102492.13
2017-09-24T21:53:42.956Z,102485.17
2017-09-24T21:56:11.250Z,102492.61
2017-09-24T21:58:39.555Z,102483.81
2017-09-24T22:01:07.935Z,102479.88
2017-09-24T22:03:36.241Z,102479.31
2017-09-24T22:06:05.320Z,102471.52
2017-09-24T22:08:33.625Z,102473.28
2017-09-24T22:11:02.153Z,102472.45
2017-09-24T22:13:30.466Z,102470.95
2017-09-24T22:15:58.804Z,102468.69
2017-09-24T22:18:27.122Z,102466.93
2017-09-24T22:20:55.437Z,102471.65
2017-09-24T22:23:23.750Z,102471.35
2017-09-24T22:25:52.052Z,102475.14
2017-09-24T22:28:20.372Z,102480.78
2017-09-24T22:30:49.467Z,102478.46
2017-09-24T22:33:17.793Z,102478.13
2017-09-24T22:35:46.096Z,102473.78
2017-09-24T22:38:14.418Z,102477.39
2017-09-24T22:40:42.745Z,102471.19
2017-09-24T22:43:11.059Z,102466.50
2017-09-24T22:45:39.372Z,102468.33
2017-09-24T22:48:07.707Z,102461.23
2017-09-24T22:50:36.003Z,102461.08
2017-09-24T22:53:04.318Z,102466.30
2017-09-24T22:55:32.758Z,102463.32
2017-09-24T22:58:01.066Z,102460.03
2017-09-24T23:00:29.422Z,102461.64
2017-09-24T23:02:57.721Z,102459.14
2017-09-24T23:05:26.032Z,102464.69
2017-09-24T23:07:55.101Z,102453.12
2017-09-24T23:10:23.430Z,102462.09
2017-09-24T23:12:51.739Z,102461.95
2017-09-24T23:15:20.075Z,102464.00
2017-09-24T23:17:49.154Z,102458.39
2017-09-24T23:20:17.502Z,102453.39
2017-09-24T23:22:45.802Z,102457.59
2017-09-24T23:25:14.129Z,102453.56
2017-09-24T23:27:43.237Z,102450.97
2017-09-24T23:30:12.337Z,102451.39
2017-09-24T23:32:40.665Z,102452.22
2017-09-24T23:35:08.973Z,102451.20
2017-09-24T23:37:38.795Z,102446.26
2017-09-24T23:40:07.103Z,102443.25
2017-09-24T23:42:35.416Z,102441.66
2017-09-24T23:45:03.724Z,102444.11
2017-09-24T23:47:32.063Z,102438.42
2017-09-24T23:50:00.363Z,102434.06
2017-09-24T23:52:28.705Z,102431.27
2017-09-24T23:54:57.783Z,102431.95
2017-09-24T23:57:26.101Z,102439.84
2017-09-24T23:59:54.411Z,102433.22
